Time;durP1;ratioP1;P1;durP2;ratioP2;P2;SDS_P1;SDS_P2;PMS_P1;PMS_P2;Temp;Humidity;BMP_temperature;BMP_pressure;BME280_temperature;BME280_humidity;BME280_pressure;Samples;Min_cycle;Max_cycle;Signal;HPM_P1;HPM_P2
2024/01/31 00:02:00;;;;;;;4.60;2.10;;;6.10;99.90;;;;;;5072276;28;20068;-69
2024/01/31 00:04:25;;;;;;;6.75;1.50;;;6.00;99.90;;;;;;5072297;28;20032;-69
2024/01/31 00:06:51;;;;;;;4.43;1.45;;;6.00;99.90;;;;;;5072182;28;20105;-70
2024/01/31 00:09:17;;;;;;;5.75;1.40;;;5.90;99.90;;;;;;5071867;28;20038;-69
2024/01/31 00:11:42;;;;;;;12.73;1.88;;;5.80;99.90;;;;;;5072090;28;20072;-69
2024/01/31 00:14:08;;;;;;;6.75;1.25;;;6.00;99.90;;;;;;5072033;28;20048;-69
2024/01/31 00:16:34;;;;;;;6.18;1.38;;;5.90;99.90;;;;;;5072053;28;20051;-70
2024/01/31 00:19:01;;;;;;;6.15;1.15;;;5.90;99.90;;;;;;5071915;28;20047;-70
2024/01/31 00:21:27;;;;;;;5.15;1.15;;;5.90;99.90;;;;;;5072025;28;20037;-69
2024/01/31 00:23:52;;;;;;;2.40;0.82;;;5.90;99.90;;;;;;5071813;28;20040;-70
2024/01/31 00:26:18;;;;;;;3.83;0.93;;;5.90;99.90;;;;;;5070667;28;20059;-70
2024/01/31 00:28:43;;;;;;;15.60;3.63;;;6.00;99.90;;;;;;5071535;28;20036;-70
2024/01/31 00:31:12;;;;;;;3.15;0.98;;;6.00;99.90;;;;;;5071822;28;20040;-70
2024/01/31 00:33:39;;;;;;;6.53;0.90;;;5.90;99.90;;;;;;5071861;28;20040;-70
2024/01/31 00:36:05;;;;;;;8.93;1.45;;;5.90;99.90;;;;;;5071842;28;20143;-69
2024/01/31 00:38:30;;;;;;;10.30;1.20;;;5.80;99.90;;;;;;5071527;28;20044;-69
2024/01/31 00:40:56;;;;;;;4.65;0.90;;;5.90;99.90;;;;;;5071711;28;20033;-69
2024/01/31 00:43:22;;;;;;;4.13;0.93;;;6.00;99.90;;;;;;5071817;28;20041;-69
2024/01/31 00:45:48;;;;;;;6.28;1.15;;;5.80;99.90;;;;;;5071692;28;20441;-69
2024/01/31 00:48:14;;;;;;;6.90;1.75;;;5.90;99.90;;;;;;5070379;28;20044;-70
2024/01/31 00:50:40;;;;;;;4.97;1.25;;;5.80;99.90;;;;;;5071509;28;20111;-70
2024/01/31 00:53:05;;;;;;;3.63;1.13;;;5.80;99.90;;;;;;5071489;28;20565;-70
2024/01/31 00:55:31;;;;;;;7.18;1.33;;;5.90;99.90;;;;;;5071759;28;20047;-69
2024/01/31 00:57:56;;;;;;;5.50;1.15;;;5.80;99.90;;;;;;5071579;28;20040;-69
2024/01/31 01:00:23;;;;;;;5.25;1.25;;;5.80;99.90;;;;;;5071477;28;20115;-69
2024/01/31 01:02:49;;;;;;;6.60;1.65;;;5.80;99.90;;;;;;5071541;28;20041;-70
2024/01/31 01:05:15;;;;;;;12.23;1.50;;;5.80;99.90;;;;;;5071553;28;20048;-69
2024/01/31 01:07:41;;;;;;;9.18;1.50;;;5.90;99.90;;;;;;5071332;28;20450;-70
2024/01/31 01:10:11;;;;;;;6.90;1.23;;;5.80;99.90;;;;;;5071246;28;20083;-69
2024/01/31 01:12:37;;;;;;;3.25;1.38;;;5.90;99.90;;;;;;5071585;28;20036;-70
2024/01/31 01:15:04;;;;;;;6.53;1.40;;;5.80;99.90;;;;;;5071666;28;20041;-70
2024/01/31 01:17:29;;;;;;;3.40;1.17;;;5.80;99.90;;;;;;5071394;28;20044;-70
2024/01/31 01:19:55;;;;;;;3.90;0.90;;;5.90;99.90;;;;;;5071356;28;20413;-69
2024/01/31 01:22:20;;;;;;;6.07;1.25;;;5.80;99.90;;;;;;5071449;28;20040;-69
2024/01/31 01:24:46;;;;;;;8.07;1.75;;;5.90;99.90;;;;;;5071292;28;20416;-70
2024/01/31 01:27:12;;;;;;;6.40;1.05;;;5.90;99.90;;;;;;5071478;28;20044;-69
2024/01/31 01:29:37;;;;;;;3.65;1.02;;;5.90;99.90;;;;;;5071309;28;20128;-69
2024/01/31 01:32:03;;;;;;;4.30;0.90;;;5.90;99.90;;;;;;5071325;28;20079;-70
2024/01/31 01:34:29;;;;;;;3.80;1.25;;;5.80;99.90;;;;;;5071194;28;20412;-69
2024/01/31 01:36:54;;;;;;;12.32;1.65;;;5.80;99.90;;;;;;5071040;28;20093;-69
2024/01/31 01:39:20;;;;;;;5.28;0.90;;;5.80;99.90;;;;;;5072075;28;20112;-70
2024/01/31 01:41:49;;;;;;;6.95;1.23;;;5.90;99.90;;;;;;5075058;28;20044;-70
2024/01/31 01:44:15;;;;;;;4.93;1.65;;;5.80;99.90;;;;;;5075034;28;20123;-70
2024/01/31 01:46:42;;;;;;;3.78;0.77;;;5.90;99.90;;;;;;5074926;28;20048;-70
2024/01/31 01:49:08;;;;;;;6.55;1.17;;;5.80;99.90;;;;;;5074589;28;20036;-69
2024/01/31 01:51:34;;;;;;;2.78;1.45;;;5.80;99.90;;;;;;5073559;28;20111;-69
2024/01/31 01:54:00;;;;;;;2.28;0.55;;;5.80;99.90;;;;;;5074889;28;20045;-69
2024/01/31 01:56:26;;;;;;;1.42;0.68;;;5.80;99.90;;;;;;5074741;28;20127;-69
2024/01/31 01:58:53;;;;;;;2.65;0.70;;;5.80;99.90;;;;;;5073506;28;20413;-69
2024/01/31 02:01:20;;;;;;;5.72;0.95;;;5.80;99.90;;;;;;5074663;28;20037;-69
2024/01/31 02:03:45;;;;;;;2.72;0.90;;;5.80;99.90;;;;;;5074398;28;20040;-69
2024/01/31 02:06:11;;;;;;;5.97;0.55;;;5.80;99.90;;;;;;5073718;28;20040;-70
2024/01/31 02:08:37;;;;;;;9.13;1.10;;;5.80;99.90;;;;;;5074305;28;20048;-70
2024/01/31 02:11:03;;;;;;;4.20;0.60;;;5.70;99.90;;;;;;5074320;28;20444;-69
2024/01/31 02:13:30;;;;;;;3.50;0.75;;;5.70;99.90;;;;;;5073108;28;20037;-69
2024/01/31 02:15:57;;;;;;;4.93;0.90;;;5.70;99.90;;;;;;5074357;28;20120;-69
2024/01/31 02:18:25;;;;;;;4.68;0.90;;;5.70;99.90;;;;;;5072846;28;20129;-70
2024/01/31 02:20:50;;;;;;;3.22;0.55;;;5.60;99.90;;;;;;5074037;28;20502;-69
2024/01/31 02:23:16;;;;;;;3.35;0.90;;;5.60;99.90;;;;;;5074101;28;20040;-69
2024/01/31 02:25:42;;;;;;;2.50;0.70;;;5.60;99.90;;;;;;5074346;28;20111;-69
2024/01/31 02:28:07;;;;;;;4.00;0.90;;;5.60;99.90;;;;;;5072870;28;20496;-69
2024/01/31 02:30:33;;;;;;;8.90;1.42;;;5.50;99.90;;;;;;5074008;28;20037;-69
2024/01/31 02:32:59;;;;;;;2.08;0.93;;;5.40;99.90;;;;;;5073819;28;20078;-69
2024/01/31 02:35:24;;;;;;;3.72;0.82;;;5.40;99.90;;;;;;5072924;28;20041;-69
2024/01/31 02:37:50;;;;;;;6.07;1.45;;;5.40;99.90;;;;;;5072590;28;20071;-69
2024/01/31 02:40:16;;;;;;;3.95;0.60;;;5.40;99.90;;;;;;5073979;28;20028;-69
2024/01/31 02:42:43;;;;;;;5.88;1.00;;;5.40;99.90;;;;;;5072562;28;20049;-69
2024/01/31 02:45:09;;;;;;;7.88;1.65;;;5.30;99.90;;;;;;5073882;28;20112;-69
2024/01/31 02:47:35;;;;;;;6.63;0.70;;;5.30;99.90;;;;;;5072379;28;20041;-69
2024/01/31 02:50:01;;;;;;;5.07;0.90;;;5.20;99.90;;;;;;5073512;28;20040;-69
2024/01/31 02:52:27;;;;;;;6.25;0.90;;;5.30;99.90;;;;;;5073767;28;20407;-70
2024/01/31 02:54:52;;;;;;;9.27;0.90;;;5.20;99.90;;;;;;5073775;28;20039;-69
2024/01/31 02:57:19;;;;;;;5.07;1.00;;;5.30;99.90;;;;;;5073560;28;20131;-69
2024/01/31 02:59:44;;;;;;;5.82;1.00;;;5.10;99.90;;;;;;5073165;28;20533;-70
2024/01/31 03:02:10;;;;;;;6.45;1.00;;;5.30;99.90;;;;;;5073529;28;20033;-70
2024/01/31 03:04:36;;;;;;;3.10;0.60;;;5.10;99.90;;;;;;5073579;28;20075;-69
2024/01/31 03:07:01;;;;;;;4.32;0.90;;;5.20;99.90;;;;;;5073594;28;20071;-69
2024/01/31 03:09:27;;;;;;;6.60;0.95;;;5.10;99.90;;;;;;5073292;28;20663;-70
2024/01/31 03:11:53;;;;;;;3.97;0.60;;;5.20;99.90;;;;;;5073475;28;20089;-69
2024/01/31 03:14:20;;;;;;;3.80;0.65;;;5.10;99.90;;;;;;5073141;28;20066;-70
2024/01/31 03:16:45;;;;;;;2.30;0.60;;;5.10;99.90;;;;;;5073134;28;20072;-69
2024/01/31 03:19:11;;;;;;;5.30;0.88;;;5.10;99.90;;;;;;5073197;28;20060;-69
2024/01/31 03:21:37;;;;;;;5.65;1.15;;;4.90;99.90;;;;;;5073263;28;20032;-69
2024/01/31 03:24:03;;;;;;;2.13;0.95;;;5.00;99.90;;;;;;5073383;28;20041;-69
2024/01/31 03:26:28;;;;;;;5.28;0.70;;;5.00;99.90;;;;;;5073141;28;20036;-69
2024/01/31 03:28:54;;;;;;;6.28;0.60;;;4.90;99.90;;;;;;5072968;28;20044;-69
2024/01/31 03:31:20;;;;;;;6.80;1.02;;;4.90;99.90;;;;;;5072941;28;20036;-69
2024/01/31 03:33:46;;;;;;;5.57;1.00;;;5.00;99.90;;;;;;5073261;28;20036;-69
2024/01/31 03:36:12;;;;;;;3.42;0.57;;;5.00;99.90;;;;;;5071998;28;20416;-68
2024/01/31 03:38:39;;;;;;;7.50;0.98;;;5.00;99.90;;;;;;5073151;28;20032;-68
2024/01/31 03:41:08;;;;;;;3.03;1.35;;;4.90;99.90;;;;;;5072757;28;20045;-69
2024/01/31 03:43:34;;;;;;;5.80;1.13;;;4.90;99.90;;;;;;5072668;28;20044;-69
2024/01/31 03:46:02;;;;;;;3.30;0.73;;;4.80;99.90;;;;;;5072591;28;20033;-68
2024/01/31 03:48:28;;;;;;;2.42;0.70;;;4.80;99.90;;;;;;5072517;28;20523;-68
2024/01/31 03:50:54;;;;;;;7.30;1.10;;;4.70;99.90;;;;;;5072481;28;20044;-68
2024/01/31 03:53:20;;;;;;;3.10;0.60;;;4.80;99.90;;;;;;5072600;28;20044;-68
2024/01/31 03:55:46;;;;;;;2.50;0.73;;;4.70;99.90;;;;;;5072558;28;20044;-68
2024/01/31 03:58:11;;;;;;;6.45;0.90;;;4.80;99.90;;;;;;5072285;28;20054;-68
2024/01/31 04:00:37;;;;;;;3.75;0.93;;;4.70;99.90;;;;;;5072171;28;20029;-68
2024/01/31 04:03:02;;;;;;;5.28;0.80;;;4.70;99.90;;;;;;5070385;28;20511;-69
2024/01/31 04:05:28;;;;;;;7.05;0.90;;;4.60;99.90;;;;;;5072437;28;20037;-69
2024/01/31 04:07:54;;;;;;;5.55;0.82;;;4.60;99.90;;;;;;5071760;28;20048;-69
2024/01/31 04:10:20;;;;;;;4.10;1.00;;;4.70;99.90;;;;;;5072170;28;20106;-68
2024/01/31 04:12:46;;;;;;;3.00;0.73;;;4.50;99.90;;;;;;5096740;22;20499;-73
2024/01/31 04:15:11;;;;;;;2.97;0.90;;;4.50;99.90;;;;;;5070724;28;20040;-72
2024/01/31 04:17:37;;;;;;;4.57;1.60;;;4.50;99.90;;;;;;5072809;28;20044;-72
2024/01/31 04:20:03;;;;;;;2.58;0.60;;;4.60;99.90;;;;;;5071096;28;20032;-72
2024/01/31 04:22:29;;;;;;;3.53;1.00;;;4.50;99.90;;;;;;5072304;28;20109;-75
2024/01/31 04:24:54;;;;;;;5.65;2.70;;;4.50;99.90;;;;;;5071439;28;20523;-75
2024/01/31 04:27:20;;;;;;;5.72;0.88;;;4.60;99.90;;;;;;5072450;28;20051;-75
2024/01/31 04:29:45;;;;;;;4.38;0.98;;;4.50;99.90;;;;;;5071106;28;20072;-75
2024/01/31 04:32:11;;;;;;;4.70;1.00;;;4.50;99.90;;;;;;5071358;28;20046;-75
2024/01/31 04:34:41;;;;;;;4.32;0.68;;;4.40;99.90;;;;;;5070798;28;20500;-75
2024/01/31 04:37:07;;;;;;;5.35;1.05;;;4.30;99.90;;;;;;5072602;28;20737;-75
2024/01/31 04:39:32;;;;;;;4.20;1.08;;;4.20;99.90;;;;;;5072051;28;20064;-75
2024/01/31 04:41:59;;;;;;;6.68;1.10;;;4.30;99.90;;;;;;5071960;28;20097;-74
2024/01/31 04:44:25;;;;;;;2.63;0.90;;;4.30;99.90;;;;;;5072537;28;20043;-75
2024/01/31 04:46:51;;;;;;;2.03;0.70;;;4.20;99.90;;;;;;5071732;28;20036;-75
2024/01/31 04:49:17;;;;;;;3.10;0.70;;;4.40;99.90;;;;;;5055314;28;20407;-75
2024/01/31 04:51:42;;;;;;;7.68;1.80;;;4.40;99.90;;;;;;5072082;28;20052;-75
2024/01/31 04:54:09;;;;;;;3.47;0.75;;;4.30;99.90;;;;;;5070734;28;20041;-75
2024/01/31 04:56:36;;;;;;;3.83;0.90;;;4.30;99.90;;;;;;5073581;28;20037;-75
2024/01/31 04:59:01;;;;;;;3.22;0.60;;;4.30;99.90;;;;;;5073161;28;20040;-75
2024/01/31 05:01:28;;;;;;;6.28;1.08;;;4.20;99.90;;;;;;5073507;28;20043;-75
2024/01/31 05:03:57;;;;;;;4.20;1.02;;;4.30;99.90;;;;;;5071351;28;20420;-75
2024/01/31 05:06:23;;;;;;;3.38;1.35;;;4.20;99.90;;;;;;5072129;28;20060;-75
2024/01/31 05:08:48;;;;;;;5.68;0.70;;;4.30;99.90;;;;;;5071844;28;20504;-74
2024/01/31 05:11:14;;;;;;;5.78;0.93;;;4.20;99.90;;;;;;5071411;28;20127;-75
2024/01/31 05:13:40;;;;;;;1.30;0.60;;;4.20;99.90;;;;;;5072782;28;20051;-75
2024/01/31 05:16:09;;;;;;;3.55;0.60;;;4.20;99.90;;;;;;5075723;28;20048;-75
2024/01/31 05:18:35;;;;;;;2.90;1.20;;;4.20;99.90;;;;;;5075760;28;20466;-75
2024/01/31 05:21:02;;;;;;;3.25;0.70;;;4.10;99.90;;;;;;5076920;28;20400;-75
2024/01/31 05:23:28;;;;;;;5.38;0.70;;;4.00;99.90;;;;;;5075634;28;20037;-75
2024/01/31 05:25:54;;;;;;;3.53;0.82;;;4.20;99.90;;;;;;5058826;28;20079;-75
2024/01/31 05:28:20;;;;;;;3.28;0.50;;;4.20;99.90;;;;;;5058913;28;20048;-75
2024/01/31 05:30:46;;;;;;;1.48;0.82;;;3.90;99.90;;;;;;5075339;28;20044;-75
2024/01/31 05:33:12;;;;;;;3.13;1.65;;;4.10;99.90;;;;;;5075774;28;20416;-75
2024/01/31 05:35:38;;;;;;;3.22;1.10;;;4.20;99.90;;;;;;5075543;28;20052;-75
2024/01/31 05:38:04;;;;;;;3.88;0.80;;;4.20;99.90;;;;;;5075733;28;20040;-75
2024/01/31 05:40:30;;;;;;;1.52;0.60;;;4.30;99.90;;;;;;5058433;28;20511;-75
2024/01/31 05:42:56;;;;;;;6.25;1.10;;;4.20;99.90;;;;;;5075581;28;20028;-75
2024/01/31 05:45:22;;;;;;;5.18;1.80;;;4.30;99.90;;;;;;5057751;28;20094;-75
2024/01/31 05:47:48;;;;;;;1.80;0.80;;;4.20;99.90;;;;;;5075264;28;20054;-75
2024/01/31 05:50:13;;;;;;;4.43;0.70;;;4.30;99.90;;;;;;5075200;28;20124;-75
2024/01/31 05:52:39;;;;;;;5.75;1.60;;;4.20;99.90;;;;;;5075516;28;20032;-75
2024/01/31 05:55:05;;;;;;;4.05;0.80;;;4.40;99.90;;;;;;5075453;28;20083;-75
2024/01/31 05:57:31;;;;;;;6.70;1.08;;;4.40;99.90;;;;;;5076500;28;20033;-75
2024/01/31 05:59:57;;;;;;;4.30;0.93;;;4.30;99.90;;;;;;5075426;28;20041;-72
2024/01/31 06:02:22;;;;;;;7.07;0.88;;;4.60;99.90;;;;;;5075276;28;20040;-75
2024/01/31 06:04:48;;;;;;;2.78;0.70;;;4.50;99.90;;;;;;5075371;28;20043;-75
2024/01/31 06:07:13;;;;;;;4.78;0.55;;;4.50;99.90;;;;;;5076106;28;20508;-75
2024/01/31 06:09:39;;;;;;;6.00;0.70;;;4.40;99.90;;;;;;5074688;28;20036;-75
2024/01/31 06:12:08;;;;;;;1.52;0.55;;;4.70;99.90;;;;;;5074981;28;20523;-74
2024/01/31 06:14:37;;;;;;;2.90;1.95;;;4.40;99.90;;;;;;5074114;28;20075;-75
2024/01/31 06:17:06;;;;;;;3.05;0.70;;;4.50;99.90;;;;;;5074881;28;20105;-75
2024/01/31 06:19:31;;;;;;;3.25;0.82;;;4.50;99.90;;;;;;5074935;28;20040;-75
2024/01/31 06:21:57;;;;;;;1.77;0.80;;;4.70;99.90;;;;;;5074897;28;20518;-75
2024/01/31 06:24:22;;;;;;;3.10;0.70;;;4.50;99.90;;;;;;5074175;28;20542;-75
2024/01/31 06:26:48;;;;;;;1.98;0.88;;;4.50;99.90;;;;;;5073725;28;20037;-75
2024/01/31 06:29:18;;;;;;;6.35;0.93;;;4.70;99.90;;;;;;5074332;28;20525;-75
2024/01/31 06:31:47;;;;;;;3.97;0.57;;;4.70;99.90;;;;;;5058230;28;20036;-75
2024/01/31 06:34:14;;;;;;;4.97;1.33;;;4.60;99.90;;;;;;5074707;28;20119;-75
2024/01/31 06:36:40;;;;;;;3.75;1.08;;;4.60;99.90;;;;;;5074114;28;20036;-75
2024/01/31 06:39:05;;;;;;;1.98;1.10;;;4.70;99.90;;;;;;5074469;28;20043;-75
2024/01/31 06:41:32;;;;;;;2.50;0.80;;;4.60;99.90;;;;;;5075427;28;20119;-75
2024/01/31 06:43:57;;;;;;;4.95;0.80;;;4.70;99.90;;;;;;5073194;28;20040;-75
2024/01/31 06:46:23;;;;;;;4.10;0.88;;;4.70;99.90;;;;;;5076273;28;20116;-75
2024/01/31 06:48:48;;;;;;;2.00;0.75;;;4.60;99.90;;;;;;5076181;28;20590;-75
2024/01/31 06:51:14;;;;;;;5.50;1.05;;;4.80;99.90;;;;;;5074183;28;20111;-75
2024/01/31 06:53:40;;;;;;;3.75;0.70;;;4.60;99.90;;;;;;5074276;28;20093;-75
2024/01/31 06:56:06;;;;;;;5.88;1.25;;;4.60;99.90;;;;;;5074484;28;20040;-75
2024/01/31 06:58:32;;;;;;;4.13;2.13;;;4.60;99.90;;;;;;5073908;28;20036;-75
2024/01/31 07:01:01;;;;;;;4.00;1.02;;;4.70;99.90;;;;;;5072668;28;20517;-75
2024/01/31 07:03:26;;;;;;;7.53;1.25;;;4.80;99.90;;;;;;5075469;28;20071;-74
2024/01/31 07:05:53;;;;;;;5.03;2.80;;;4.70;99.90;;;;;;5057868;28;20480;-75
2024/01/31 07:08:18;;;;;;;8.85;1.27;;;4.80;99.90;;;;;;5075935;28;20072;-75
2024/01/31 07:10:44;;;;;;;3.85;1.05;;;4.80;99.90;;;;;;5074234;28;20044;-75
2024/01/31 07:13:10;;;;;;;6.53;1.48;;;4.70;99.90;;;;;;5075145;28;20480;-74
2024/01/31 07:15:35;;;;;;;3.03;0.95;;;4.70;99.90;;;;;;5072658;28;20040;-75
2024/01/31 07:18:01;;;;;;;4.18;1.50;;;4.80;99.90;;;;;;5073771;28;20577;-75
2024/01/31 07:20:27;;;;;;;3.55;1.23;;;4.80;99.90;;;;;;5072473;28;20054;-75
2024/01/31 07:22:53;;;;;;;7.45;1.35;;;4.80;99.90;;;;;;5075233;28;20032;-75
2024/01/31 07:25:19;;;;;;;3.47;1.48;;;4.80;99.90;;;;;;5073247;28;20450;-75
2024/01/31 07:27:45;;;;;;;8.65;1.60;;;4.80;99.90;;;;;;5073423;28;20162;-75
2024/01/31 07:30:11;;;;;;;4.90;1.35;;;5.00;99.90;;;;;;5073421;28;20036;-75
2024/01/31 07:32:40;;;;;;;6.78;2.45;;;4.90;99.90;;;;;;5072072;28;20051;-75
2024/01/31 07:35:09;;;;;;;5.97;1.27;;;5.00;99.90;;;;;;5072272;28;20040;-75
2024/01/31 07:37:36;;;;;;;3.35;1.20;;;4.80;99.90;;;;;;5071237;28;20522;-75
2024/01/31 07:40:04;;;;;;;5.85;1.67;;;4.80;99.90;;;;;;5074548;28;20041;-75
2024/01/31 07:42:29;;;;;;;6.22;2.03;;;4.90;99.90;;;;;;5073291;28;20037;-75
2024/01/31 07:44:55;;;;;;;6.32;1.48;;;4.90;99.90;;;;;;5072750;28;20093;-75
2024/01/31 07:47:21;;;;;;;3.83;1.77;;;4.90;99.90;;;;;;5071657;28;20123;-75
2024/01/31 07:49:46;;;;;;;6.60;1.70;;;4.90;99.90;;;;;;5074325;28;20047;-75
2024/01/31 07:52:12;;;;;;;4.88;1.40;;;5.00;99.90;;;;;;5073067;28;20443;-76
2024/01/31 07:54:39;;;;;;;8.82;1.63;;;5.10;99.90;;;;;;5074633;28;20044;-75
2024/01/31 07:57:04;;;;;;;5.60;2.17;;;5.00;99.90;;;;;;5071986;28;20048;-75
2024/01/31 07:59:30;;;;;;;4.72;1.40;;;5.00;99.90;;;;;;5074898;28;20040;-76
2024/01/31 08:01:56;;;;;;;3.80;1.13;;;5.00;99.90;;;;;;5073244;28;20075;-75
2024/01/31 08:04:21;;;;;;;8.82;1.77;;;5.00;99.90;;;;;;5074205;28;20047;-75
2024/01/31 08:06:47;;;;;;;6.38;1.50;;;5.10;99.90;;;;;;5074636;28;20028;-74
2024/01/31 08:09:15;;;;;;;3.58;1.10;;;5.20;99.90;;;;;;5072536;28;20568;-75
2024/01/31 08:11:44;;;;;;;6.45;2.30;;;5.10;99.90;;;;;;5073230;28;20055;-75
2024/01/31 08:14:10;;;;;;;10.70;1.60;;;5.20;99.90;;;;;;5072034;28;20036;-75
2024/01/31 08:16:37;;;;;;;6.10;1.42;;;5.10;99.90;;;;;;5074291;28;20037;-75
2024/01/31 08:19:03;;;;;;;4.22;1.60;;;5.20;99.90;;;;;;5072415;28;20052;-75
2024/01/31 08:21:32;;;;;;;3.92;1.80;;;5.20;99.90;;;;;;5055430;28;20102;-74
2024/01/31 08:23:59;;;;;;;6.72;2.35;;;5.30;99.90;;;;;;5072128;28;20492;-75
2024/01/31 08:26:24;;;;;;;5.40;1.38;;;5.30;99.90;;;;;;5073568;28;20081;-75
2024/01/31 08:28:50;;;;;;;9.15;1.90;;;5.30;99.90;;;;;;5074221;28;20036;-75
2024/01/31 08:31:16;;;;;;;3.97;1.13;;;5.20;99.90;;;;;;5073376;28;20410;-77
2024/01/31 08:33:42;;;;;;;5.30;2.47;;;5.40;99.90;;;;;;5074474;28;20052;-75
2024/01/31 08:36:08;;;;;;;4.53;1.35;;;5.30;99.90;;;;;;5072489;28;20055;-75
2024/01/31 08:38:36;;;;;;;2.95;1.45;;;5.30;99.90;;;;;;5070433;28;20119;-75
2024/01/31 08:41:02;;;;;;;5.45;2.05;;;5.40;99.90;;;;;;5070035;28;20454;-74
2024/01/31 08:43:27;;;;;;;8.25;3.75;;;5.50;99.90;;;;;;5069236;28;20068;-75
2024/01/31 08:45:53;;;;;;;2.15;1.70;;;5.40;99.90;;;;;;5070865;28;20036;-76
2024/01/31 08:48:19;;;;;;;6.50;1.90;;;5.50;99.90;;;;;;5072956;28;20068;-76
2024/01/31 08:50:45;;;;;;;7.53;2.33;;;5.50;99.90;;;;;;5053705;28;20044;-76
2024/01/31 08:53:12;;;;;;;7.90;2.40;;;5.50;99.90;;;;;;5072162;28;20393;-76
2024/01/31 08:55:38;;;;;;;4.70;2.38;;;5.50;99.90;;;;;;5071326;28;20373;-76
2024/01/31 08:58:03;;;;;;;5.13;2.58;;;5.60;99.90;;;;;;5072217;28;20052;-76
2024/01/31 09:00:30;;;;;;;8.05;2.70;;;5.60;99.90;;;;;;5070749;28;20093;-76
2024/01/31 09:02:56;;;;;;;5.03;2.85;;;5.70;99.90;;;;;;5071834;28;20032;-75
2024/01/31 09:05:22;;;;;;;5.00;3.22;;;5.70;99.90;;;;;;5071301;28;20393;-74
2024/01/31 09:07:48;;;;;;;7.63;2.72;;;5.70;99.90;;;;;;5070400;28;20046;-75
2024/01/31 09:10:13;;;;;;;6.40;3.00;;;5.70;99.90;;;;;;5071450;28;20488;-74
2024/01/31 09:12:39;;;;;;;7.70;2.72;;;5.70;99.90;;;;;;5070132;28;20036;-74
2024/01/31 09:15:05;;;;;;;7.15;4.65;;;5.80;99.90;;;;;;5071740;28;20361;-75
2024/01/31 09:17:31;;;;;;;5.22;3.65;;;5.80;99.90;;;;;;5071562;28;20405;-74
2024/01/31 09:19:57;;;;;;;8.13;4.55;;;5.80;99.90;;;;;;5070132;28;20161;-74
2024/01/31 09:22:24;;;;;;;5.18;3.03;;;5.80;99.90;;;;;;5071670;28;20032;-74
2024/01/31 09:24:50;;;;;;;6.30;4.47;;;5.90;99.90;;;;;;5069887;28;20044;-75
2024/01/31 09:27:19;;;;;;;7.40;3.92;;;6.00;99.90;;;;;;5071488;28;20059;-75
2024/01/31 09:29:45;;;;;;;6.00;3.45;;;6.10;99.90;;;;;;5070976;28;20041;-75
2024/01/31 09:32:11;;;;;;;5.10;3.60;;;6.30;99.90;;;;;;5072460;28;20040;-75
2024/01/31 09:34:36;;;;;;;10.32;4.43;;;6.30;99.90;;;;;;5074519;28;20549;-75
2024/01/31 09:37:02;;;;;;;8.65;4.82;;;6.50;99.90;;;;;;5075126;28;20039;-75
2024/01/31 09:39:30;;;;;;;10.82;4.60;;;6.50;99.90;;;;;;5074643;28;20090;-75
2024/01/31 09:41:56;;;;;;;8.52;4.88;;;6.60;99.90;;;;;;5074952;28;20048;-76
2024/01/31 09:44:21;;;;;;;6.22;4.63;;;6.60;99.90;;;;;;5073882;28;20044;-75
2024/01/31 09:46:49;;;;;;;7.20;4.70;;;6.60;99.90;;;;;;5075123;28;20033;-76
2024/01/31 09:49:15;;;;;;;9.60;4.43;;;6.60;99.90;;;;;;5074596;28;20040;-76
2024/01/31 09:51:40;;;;;;;6.45;4.28;;;6.70;99.90;;;;;;5075755;28;20035;-76
2024/01/31 09:54:07;;;;;;;9.10;4.60;;;6.70;99.90;;;;;;5074907;28;20083;-76
2024/01/31 09:56:33;;;;;;;6.68;4.68;;;6.70;99.90;;;;;;5075255;28;20108;-76
2024/01/31 09:58:59;;;;;;;9.15;5.50;;;6.70;99.90;;;;;;5073772;28;20059;-76
2024/01/31 10:01:26;;;;;;;11.07;5.07;;;6.70;99.90;;;;;;5076709;28;20151;-76
2024/01/31 10:03:52;;;;;;;10.23;5.55;;;6.70;99.90;;;;;;5078092;28;20043;-76
2024/01/31 10:06:19;;;;;;;11.02;5.10;;;6.70;99.90;;;;;;5078364;28;20029;-76
2024/01/31 10:08:46;;;;;;;8.57;5.00;;;6.70;99.90;;;;;;5078133;28;20105;-77
2024/01/31 10:11:12;;;;;;;9.80;5.30;;;6.70;99.90;;;;;;5078999;28;20049;-77
2024/01/31 10:13:38;;;;;;;9.57;4.72;;;6.70;99.90;;;;;;5095944;22;20106;-70
2024/01/31 10:16:05;;;;;;;8.32;5.32;;;6.70;99.90;;;;;;5054527;28;20412;-70
2024/01/31 10:18:30;;;;;;;9.13;4.57;;;6.70;99.90;;;;;;5054106;28;20041;-70
2024/01/31 10:20:59;;;;;;;7.00;5.15;;;6.70;99.90;;;;;;5054171;28;20111;-70
2024/01/31 10:23:25;;;;;;;8.38;5.25;;;6.70;99.90;;;;;;5053674;28;20033;-70
2024/01/31 10:25:51;;;;;;;8.82;5.82;;;6.70;99.90;;;;;;5054047;28;20032;-70
2024/01/31 10:28:20;;;;;;;10.82;5.68;;;6.70;99.90;;;;;;5054195;28;20037;-70
2024/01/31 10:30:49;;;;;;;9.50;4.78;;;6.80;99.90;;;;;;5046499;28;20045;-70
2024/01/31 10:33:15;;;;;;;9.38;5.32;;;6.80;99.90;;;;;;5035886;28;20098;-70
2024/01/31 10:35:45;;;;;;;8.45;5.25;;;6.80;99.90;;;;;;5053509;28;20037;-70
2024/01/31 10:38:12;;;;;;;8.25;4.78;;;6.80;99.90;;;;;;5053254;28;20075;-70
2024/01/31 10:40:40;;;;;;;9.55;5.70;;;6.80;99.90;;;;;;5053589;28;20029;-70
2024/01/31 10:43:08;;;;;;;9.00;5.65;;;6.90;99.90;;;;;;5050858;28;20047;-70
2024/01/31 10:45:34;;;;;;;8.32;5.35;;;6.90;99.90;;;;;;5053496;28;20029;-70
2024/01/31 10:48:04;;;;;;;8.07;5.70;;;6.90;99.90;;;;;;5053291;28;20055;-70
2024/01/31 10:50:33;;;;;;;6.00;4.57;;;6.90;99.90;;;;;;5053484;28;20110;-69
2024/01/31 10:53:02;;;;;;;9.63;5.32;;;7.00;99.90;;;;;;5053128;28;20556;-72
2024/01/31 10:55:28;;;;;;;8.77;5.05;;;6.90;99.90;;;;;;5053148;28;20045;-72
2024/01/31 10:57:54;;;;;;;8.77;5.90;;;6.90;99.90;;;;;;5053147;28;20119;-72
2024/01/31 11:00:30;;;;;;;7.95;5.25;;;6.90;99.90;;;;;;5053262;28;20527;-72
2024/01/31 11:03:00;;;;;;;8.25;5.47;;;7.00;99.90;;;;;;5053546;28;20048;-72
2024/01/31 11:05:33;;;;;;;7.80;5.40;;;6.90;99.90;;;;;;5053236;28;20037;-72
2024/01/31 11:07:58;;;;;;;8.18;5.13;;;6.90;99.90;;;;;;5035628;28;20036;-72
2024/01/31 11:10:26;;;;;;;8.02;5.38;;;6.90;99.90;;;;;;5053348;28;20049;-72
2024/01/31 11:13:00;;;;;;;8.35;5.03;;;7.00;99.90;;;;;;5053032;28;20522;-72
2024/01/31 11:15:34;;;;;;;6.93;4.55;;;7.00;99.90;;;;;;5053091;28;20504;-73
2024/01/31 11:18:11;;;;;;;7.05;4.68;;;7.10;99.90;;;;;;5034102;28;20458;-73
2024/01/31 11:20:50;;;;;;;7.88;4.55;;;7.30;99.90;;;;;;5053084;28;20033;-72
2024/01/31 11:23:16;;;;;;;8.60;4.60;;;7.40;99.90;;;;;;5052735;28;20043;-73
2024/01/31 11:25:46;;;;;;;6.60;4.57;;;7.50;99.90;;;;;;5052678;28;20048;-72
2024/01/31 11:28:13;;;;;;;9.07;5.15;;;7.50;99.90;;;;;;5052375;28;20040;-72
2024/01/31 11:30:41;;;;;;;5.68;4.38;;;7.40;99.90;;;;;;5052676;28;20116;-72
2024/01/31 11:33:06;;;;;;;6.32;4.40;;;7.40;99.90;;;;;;5052269;28;20043;-72
2024/01/31 11:35:33;;;;;;;6.20;4.18;;;7.50;99.90;;;;;;5052625;28;20112;-73
2024/01/31 11:37:59;;;;;;;7.55;4.00;;;7.50;99.90;;;;;;5052775;28;20033;-72
2024/01/31 11:40:25;;;;;;;6.35;4.53;;;7.50;99.90;;;;;;5052673;28;20033;-72
2024/01/31 11:42:56;;;;;;;8.20;4.70;;;7.50;99.90;;;;;;5052127;28;20090;-72
2024/01/31 11:45:23;;;;;;;5.75;3.97;;;7.50;99.90;;;;;;5034994;28;20037;-74
2024/01/31 11:47:49;;;;;;;5.78;4.30;;;7.50;99.90;;;;;;5052781;28;20064;-71
2024/01/31 11:50:15;;;;;;;6.75;4.82;;;7.60;99.90;;;;;;5052574;28;20120;-71
2024/01/31 11:52:41;;;;;;;6.43;4.20;;;7.60;99.90;;;;;;5052603;28;20627;-71
2024/01/31 11:55:08;;;;;;;5.82;3.88;;;7.50;99.90;;;;;;5052380;28;20143;-71
2024/01/31 11:57:34;;;;;;;5.90;4.20;;;7.50;99.90;;;;;;5052344;28;20133;-73
2024/01/31 12:00:06;;;;;;;7.40;4.45;;;7.50;99.90;;;;;;5052707;28;20146;-72
2024/01/31 12:02:33;;;;;;;8.68;5.47;;;7.50;99.90;;;;;;5052664;28;20098;-71
2024/01/31 12:04:59;;;;;;;6.40;5.15;;;7.40;99.90;;;;;;5052217;28;20036;-71
2024/01/31 12:07:24;;;;;;;6.85;5.10;;;7.40;99.90;;;;;;5052327;28;20051;-71
2024/01/31 12:09:50;;;;;;;6.75;5.45;;;7.40;99.90;;;;;;5051963;28;20040;-71
2024/01/31 12:12:16;;;;;;;7.25;5.13;;;7.40;99.90;;;;;;5052416;28;20049;-71
2024/01/31 12:14:42;;;;;;;7.07;5.32;;;7.40;99.90;;;;;;5052081;28;20037;-71
2024/01/31 12:17:27;;;;;;;6.53;4.97;;;7.40;99.90;;;;;;5052182;28;20758;-71
2024/01/31 12:20:08;;;;;;;7.38;4.82;;;7.30;99.90;;;;;;5051869;28;20515;-71
2024/01/31 12:22:37;;;;;;;8.15;5.18;;;7.30;99.90;;;;;;5051574;28;20033;-71
2024/01/31 12:25:04;;;;;;;6.60;4.97;;;7.30;99.90;;;;;;5051915;28;20072;-71
2024/01/31 12:27:30;;;;;;;7.15;5.50;;;7.30;99.90;;;;;;5051076;28;20041;-71
2024/01/31 12:29:57;;;;;;;8.15;5.38;;;7.30;99.90;;;;;;5050997;28;20385;-71
2024/01/31 12:32:26;;;;;;;9.13;5.93;;;7.30;99.90;;;;;;5051034;28;20107;-71
2024/01/31 12:34:52;;;;;;;7.32;5.40;;;7.30;99.90;;;;;;5049777;28;20123;-71
2024/01/31 12:37:18;;;;;;;10.57;6.38;;;7.30;99.90;;;;;;5051141;28;20467;-70
2024/01/31 12:39:43;;;;;;;6.68;5.78;;;7.30;99.90;;;;;;5051307;28;20120;-71
2024/01/31 12:42:09;;;;;;;10.02;6.53;;;7.30;99.90;;;;;;5051756;28;20112;-71
2024/01/31 12:44:35;;;;;;;7.70;6.30;;;7.30;99.90;;;;;;5033961;28;20045;-71
2024/01/31 12:47:05;;;;;;;10.07;6.90;;;7.30;99.90;;;;;;5051501;28;20064;-72
2024/01/31 12:49:33;;;;;;;9.23;6.85;;;7.40;99.90;;;;;;5050894;28;20040;-71
2024/01/31 12:52:02;;;;;;;10.63;7.20;;;7.30;99.90;;;;;;5033576;28;20033;-71